<?xml version="1.0" encoding="UTF-8" standalone="no" ?>
<gpx xmlns="http://www.topografix.com/GPX/1/1" xmlns:xsi="http://www.w3.org/2001/XMLSchema-instance" xsi:schemaLocation="http://www.topografix.com/GPX/1/1 http://www.topografix.com/GPX/1/1/gpx.xsd" version="1.1" creator="VisuGPX - https://www.visugpx.com">
  <metadata>
    <name>Transcaucasie: Géorgie + Arménie</name>
  </metadata>
  <trk>
    <name><![CDATA[Tour d'Europe: étape 452]]></name>
    <extensions>
      <line xmlns="http://www.topografix.com/GPX/gpx_style/0/2">
        <color>880000</color>
        <width>4</width>
      </line>
    </extensions>
    <trkseg>
      <trkpt lat="42.26969" lon="42.70417">
        <ele>188.435583</ele>
        <time>2021-09-23T05:04:57.122Z</time>
      </trkpt>
      <trkpt lat="42.26886" lon="42.70435">
        <ele>187.22804</ele>
        <time>2021-09-23T05:08:10.926Z</time>
      </trkpt>
      <trkpt lat="42.26672" lon="42.70431">
        <ele>182.450552</ele>
        <time>2021-09-23T05:09:07.945Z</time>
      </trkpt>
      <trkpt lat="42.26442" lon="42.70562">
        <ele>175.746887</ele>
        <time>2021-09-23T05:09:50.950Z</time>
      </trkpt>
      <trkpt lat="42.26253" lon="42.70724">
        <ele>166.774983</ele>
        <time>2021-09-23T05:10:39.956Z</time>
      </trkpt>
      <trkpt lat="42.26049" lon="42.70818">
        <ele>173.678361</ele>
        <time>2021-09-23T05:11:38.968Z</time>
      </trkpt>
      <trkpt lat="42.25831" lon="42.70856">
        <ele>171.169735</ele>
        <time>2021-09-23T05:12:37.953Z</time>
      </trkpt>
      <trkpt lat="42.25624" lon="42.71001">
        <ele>164.80557</ele>
        <time>2021-09-23T05:15:30.948Z</time>
      </trkpt>
      <trkpt lat="42.25427" lon="42.70953">
        <ele>176.04979</ele>
        <time>2021-09-23T05:17:19.938Z</time>
      </trkpt>
      <trkpt lat="42.25208" lon="42.70954">
        <ele>176.859882</ele>
        <time>2021-09-23T05:18:21.947Z</time>
      </trkpt>
      <trkpt lat="42.24994" lon="42.70955">
        <ele>176.496423</ele>
        <time>2021-09-23T05:19:22.981Z</time>
      </trkpt>
      <trkpt lat="42.24776" lon="42.7096">
        <ele>176.734582</ele>
        <time>2021-09-23T05:20:30.960Z</time>
      </trkpt>
      <trkpt lat="42.24616" lon="42.71057">
        <ele>178.517854</ele>
        <time>2021-09-23T05:21:54.957Z</time>
      </trkpt>
      <trkpt lat="42.24471" lon="42.71209">
        <ele>189.05961</ele>
        <time>2021-09-23T05:23:41.977Z</time>
      </trkpt>
      <trkpt lat="42.24265" lon="42.71266">
        <ele>193.557092</ele>
        <time>2021-09-23T05:25:04.965Z</time>
      </trkpt>
      <trkpt lat="42.24053" lon="42.71268">
        <ele>190.179596</ele>
        <time>2021-09-23T05:26:10.952Z</time>
      </trkpt>
      <trkpt lat="42.2383" lon="42.71243">
        <ele>188.83578</ele>
        <time>2021-09-23T05:27:04.960Z</time>
      </trkpt>
      <trkpt lat="42.23614" lon="42.71209">
        <ele>187.96937</ele>
        <time>2021-09-23T05:27:51.959Z</time>
      </trkpt>
      <trkpt lat="42.23387" lon="42.71185">
        <ele>186.758486</ele>
        <time>2021-09-23T05:28:41.999Z</time>
      </trkpt>
      <trkpt lat="42.23179" lon="42.71176">
        <ele>186.064913</ele>
        <time>2021-09-23T05:29:26.970Z</time>
      </trkpt>
      <trkpt lat="42.22965" lon="42.71165">
        <ele>181.857284</ele>
        <time>2021-09-23T05:30:14.001Z</time>
      </trkpt>
      <trkpt lat="42.22734" lon="42.7115">
        <ele>179.39007</ele>
        <time>2021-09-23T05:31:08.955Z</time>
      </trkpt>
      <trkpt lat="42.22505" lon="42.71134">
        <ele>180.07706</ele>
        <time>2021-09-23T05:32:01.959Z</time>
      </trkpt>
      <trkpt lat="42.22278" lon="42.71114">
        <ele>179.998826</ele>
        <time>2021-09-23T05:32:58.959Z</time>
      </trkpt>
      <trkpt lat="42.22037" lon="42.71095">
        <ele>180.455835</ele>
        <time>2021-09-23T05:33:56.947Z</time>
      </trkpt>
      <trkpt lat="42.21809" lon="42.7107">
        <ele>180.856991</ele>
        <time>2021-09-23T05:34:51.952Z</time>
      </trkpt>
      <trkpt lat="42.21592" lon="42.71052">
        <ele>177.143714</ele>
        <time>2021-09-23T05:35:41.972Z</time>
      </trkpt>
      <trkpt lat="42.21341" lon="42.71023">
        <ele>171.566777</ele>
        <time>2021-09-23T05:36:40.946Z</time>
      </trkpt>
      <trkpt lat="42.21109" lon="42.71004">
        <ele>169.505706</ele>
        <time>2021-09-23T05:37:33.973Z</time>
      </trkpt>
      <trkpt lat="42.2087" lon="42.70981">
        <ele>169.349134</ele>
        <time>2021-09-23T05:38:32.959Z</time>
      </trkpt>
      <trkpt lat="42.20638" lon="42.70957">
        <ele>171.013626</ele>
        <time>2021-09-23T05:39:27.964Z</time>
      </trkpt>
      <trkpt lat="42.20399" lon="42.70933">
        <ele>171.485655</ele>
        <time>2021-09-23T05:40:27.961Z</time>
      </trkpt>
      <trkpt lat="42.20181" lon="42.7091">
        <ele>171.004435</ele>
        <time>2021-09-23T05:41:25.992Z</time>
      </trkpt>
      <trkpt lat="42.19954" lon="42.7095">
        <ele>162.735771</ele>
        <time>2021-09-23T05:42:18.970Z</time>
      </trkpt>
      <trkpt lat="42.19821" lon="42.71263">
        <ele>146.380953</ele>
        <time>2021-09-23T05:42:58.966Z</time>
      </trkpt>
      <trkpt lat="42.1983" lon="42.71696">
        <ele>132.894154</ele>
        <time>2021-09-23T05:43:38.973Z</time>
      </trkpt>
      <trkpt lat="42.19799" lon="42.72024">
        <ele>121.638319</ele>
        <time>2021-09-23T05:44:11.977Z</time>
      </trkpt>
      <trkpt lat="42.19693" lon="42.72296">
        <ele>121.367181</ele>
        <time>2021-09-23T05:45:15.958Z</time>
      </trkpt>
      <trkpt lat="42.1953" lon="42.72485">
        <ele>121.659449</ele>
        <time>2021-09-23T05:46:09.982Z</time>
      </trkpt>
      <trkpt lat="42.19356" lon="42.72666">
        <ele>120.014383</ele>
        <time>2021-09-23T05:47:02.946Z</time>
      </trkpt>
      <trkpt lat="42.19178" lon="42.72855">
        <ele>118.081274</ele>
        <time>2021-09-23T05:47:58.962Z</time>
      </trkpt>
      <trkpt lat="42.19007" lon="42.73038">
        <ele>117.429289</ele>
        <time>2021-09-23T05:48:50.956Z</time>
      </trkpt>
      <trkpt lat="42.18831" lon="42.73206">
        <ele>117.71027</ele>
        <time>2021-09-23T05:49:48.968Z</time>
      </trkpt>
      <trkpt lat="42.18635" lon="42.73299">
        <ele>119.291867</ele>
        <time>2021-09-23T05:51:18.963Z</time>
      </trkpt>
      <trkpt lat="42.18375" lon="42.73341">
        <ele>113.396623</ele>
        <time>2021-09-23T05:52:06.961Z</time>
      </trkpt>
      <trkpt lat="42.18132" lon="42.73371">
        <ele>110.569021</ele>
        <time>2021-09-23T05:52:49.947Z</time>
      </trkpt>
      <trkpt lat="42.17921" lon="42.73392">
        <ele>114.173939</ele>
        <time>2021-09-23T05:53:38.961Z</time>
      </trkpt>
      <trkpt lat="42.17697" lon="42.7346">
        <ele>117.008131</ele>
        <time>2021-09-23T05:54:34.966Z</time>
      </trkpt>
      <trkpt lat="42.17471" lon="42.7354">
        <ele>109.104263</ele>
        <time>2021-09-23T05:55:33.972Z</time>
      </trkpt>
      <trkpt lat="42.17242" lon="42.73619">
        <ele>111.522388</ele>
        <time>2021-09-23T05:56:34.967Z</time>
      </trkpt>
      <trkpt lat="42.16999" lon="42.73686">
        <ele>115.853934</ele>
        <time>2021-09-23T05:57:35.943Z</time>
      </trkpt>
      <trkpt lat="42.16804" lon="42.73777">
        <ele>124.411335</ele>
        <time>2021-09-23T05:59:04.968Z</time>
      </trkpt>
      <trkpt lat="42.16608" lon="42.73876">
        <ele>124.760457</ele>
        <time>2021-09-23T06:00:14.986Z</time>
      </trkpt>
      <trkpt lat="42.16516" lon="42.74032">
        <ele>122.325531</ele>
        <time>2021-09-23T06:01:21.958Z</time>
      </trkpt>
      <trkpt lat="42.16563" lon="42.74311">
        <ele>125.503133</ele>
        <time>2021-09-23T06:02:23.959Z</time>
      </trkpt>
      <trkpt lat="42.16619" lon="42.74585">
        <ele>125.910995</ele>
        <time>2021-09-23T06:03:26.972Z</time>
      </trkpt>
      <trkpt lat="42.16673" lon="42.74869">
        <ele>123.572898</ele>
        <time>2021-09-23T06:04:24.957Z</time>
      </trkpt>
      <trkpt lat="42.16728" lon="42.75164">
        <ele>129.95702</ele>
        <time>2021-09-23T06:05:24.970Z</time>
      </trkpt>
      <trkpt lat="42.16792" lon="42.75465">
        <ele>128.484328</ele>
        <time>2021-09-23T06:06:24.960Z</time>
      </trkpt>
      <trkpt lat="42.16844" lon="42.75758">
        <ele>124.504563</ele>
        <time>2021-09-23T06:07:17.962Z</time>
      </trkpt>
      <trkpt lat="42.16899" lon="42.76053">
        <ele>124.3573</ele>
        <time>2021-09-23T06:08:10.962Z</time>
      </trkpt>
      <trkpt lat="42.16949" lon="42.76348">
        <ele>123.260998</ele>
        <time>2021-09-23T06:09:04.959Z</time>
      </trkpt>
      <trkpt lat="42.17005" lon="42.7665">
        <ele>116.748651</ele>
        <time>2021-09-23T06:10:00.959Z</time>
      </trkpt>
      <trkpt lat="42.17086" lon="42.76962">
        <ele>117.566009</ele>
        <time>2021-09-23T06:11:01.960Z</time>
      </trkpt>
      <trkpt lat="42.17235" lon="42.772">
        <ele>115.405078</ele>
        <time>2021-09-23T06:11:59.953Z</time>
      </trkpt>
      <trkpt lat="42.17403" lon="42.77426">
        <ele>120.328101</ele>
        <time>2021-09-23T06:12:57.962Z</time>
      </trkpt>
      <trkpt lat="42.17556" lon="42.77659">
        <ele>117.989188</ele>
        <time>2021-09-23T06:13:57.978Z</time>
      </trkpt>
      <trkpt lat="42.17713" lon="42.77884">
        <ele>119.225579</ele>
        <time>2021-09-23T06:14:57.991Z</time>
      </trkpt>
      <trkpt lat="42.17859" lon="42.78092">
        <ele>119.369028</ele>
        <time>2021-09-23T06:15:57.957Z</time>
      </trkpt>
      <trkpt lat="42.18011" lon="42.78307">
        <ele>118.580697</ele>
        <time>2021-09-23T06:16:57.971Z</time>
      </trkpt>
      <trkpt lat="42.1817" lon="42.78529">
        <ele>118.300643</ele>
        <time>2021-09-23T06:18:00.971Z</time>
      </trkpt>
      <trkpt lat="42.18313" lon="42.78732">
        <ele>118.668016</ele>
        <time>2021-09-23T06:19:00.962Z</time>
      </trkpt>
      <trkpt lat="42.18455" lon="42.78932">
        <ele>117.082927</ele>
        <time>2021-09-23T06:20:00.951Z</time>
      </trkpt>
      <trkpt lat="42.18603" lon="42.79135">
        <ele>118.920724</ele>
        <time>2021-09-23T06:21:01.976Z</time>
      </trkpt>
      <trkpt lat="42.18669" lon="42.79389">
        <ele>120.149168</ele>
        <time>2021-09-23T06:22:02.959Z</time>
      </trkpt>
      <trkpt lat="42.18709" lon="42.79669">
        <ele>120.519008</ele>
        <time>2021-09-23T06:23:02.969Z</time>
      </trkpt>
      <trkpt lat="42.18749" lon="42.79956">
        <ele>119.393874</ele>
        <time>2021-09-23T06:24:12.962Z</time>
      </trkpt>
      <trkpt lat="42.18591" lon="42.80135">
        <ele>118.672164</ele>
        <time>2021-09-23T06:25:27.953Z</time>
      </trkpt>
      <trkpt lat="42.18406" lon="42.8027">
        <ele>118.188134</ele>
        <time>2021-09-23T06:26:36.964Z</time>
      </trkpt>
      <trkpt lat="42.18221" lon="42.80407">
        <ele>119.436477</ele>
        <time>2021-09-23T06:27:47.955Z</time>
      </trkpt>
      <trkpt lat="42.18034" lon="42.80545">
        <ele>121.467866</ele>
        <time>2021-09-23T06:28:58.959Z</time>
      </trkpt>
      <trkpt lat="42.17859" lon="42.8067">
        <ele>120.92104</ele>
        <time>2021-09-23T06:30:07.987Z</time>
      </trkpt>
      <trkpt lat="42.17669" lon="42.80811">
        <ele>124.527142</ele>
        <time>2021-09-23T06:31:18.969Z</time>
      </trkpt>
      <trkpt lat="42.17476" lon="42.80951">
        <ele>125.066264</ele>
        <time>2021-09-23T06:32:29.999Z</time>
      </trkpt>
      <trkpt lat="42.17288" lon="42.81087">
        <ele>124.941022</ele>
        <time>2021-09-23T06:33:40.953Z</time>
      </trkpt>
      <trkpt lat="42.17102" lon="42.81223">
        <ele>125.623695</ele>
        <time>2021-09-23T06:34:52.961Z</time>
      </trkpt>
      <trkpt lat="42.1692" lon="42.81357">
        <ele>127.433312</ele>
        <time>2021-09-23T06:36:00.959Z</time>
      </trkpt>
      <trkpt lat="42.1674" lon="42.81486">
        <ele>131.569843</ele>
        <time>2021-09-23T06:37:05.000Z</time>
      </trkpt>
      <trkpt lat="42.16558" lon="42.81623">
        <ele>135.092818</ele>
        <time>2021-09-23T06:38:09.988Z</time>
      </trkpt>
      <trkpt lat="42.16373" lon="42.81756">
        <ele>135.185191</ele>
        <time>2021-09-23T06:39:09.984Z</time>
      </trkpt>
      <trkpt lat="42.16177" lon="42.81899">
        <ele>134.689266</ele>
        <time>2021-09-23T06:40:10.961Z</time>
      </trkpt>
      <trkpt lat="42.16048" lon="42.82098">
        <ele>132.375931</ele>
        <time>2021-09-23T06:41:11.973Z</time>
      </trkpt>
      <trkpt lat="42.15954" lon="42.82351">
        <ele>135.143125</ele>
        <time>2021-09-23T06:42:23.959Z</time>
      </trkpt>
      <trkpt lat="42.15812" lon="42.82561">
        <ele>136.984834</ele>
        <time>2021-09-23T06:43:35.967Z</time>
      </trkpt>
      <trkpt lat="42.15667" lon="42.82757">
        <ele>135.3108</ele>
        <time>2021-09-23T06:44:28.957Z</time>
      </trkpt>
      <trkpt lat="42.15523" lon="42.82965">
        <ele>135.805848</ele>
        <time>2021-09-23T06:45:30.938Z</time>
      </trkpt>
      <trkpt lat="42.15371" lon="42.83181">
        <ele>135.356149</ele>
        <time>2021-09-23T06:46:42.961Z</time>
      </trkpt>
      <trkpt lat="42.15229" lon="42.83391">
        <ele>137.583923</ele>
        <time>2021-09-23T06:47:55.972Z</time>
      </trkpt>
      <trkpt lat="42.15096" lon="42.83633">
        <ele>141.305605</ele>
        <time>2021-09-23T06:48:56.966Z</time>
      </trkpt>
      <trkpt lat="42.14987" lon="42.83853">
        <ele>146.928459</ele>
        <time>2021-09-23T06:50:41.971Z</time>
      </trkpt>
      <trkpt lat="42.1486" lon="42.84048">
        <ele>158.203359</ele>
        <time>2021-09-23T06:52:32.964Z</time>
      </trkpt>
      <trkpt lat="42.14868" lon="42.84284">
        <ele>171.830761</ele>
        <time>2021-09-23T06:54:22.984Z</time>
      </trkpt>
      <trkpt lat="42.15005" lon="42.84493">
        <ele>179.122626</ele>
        <time>2021-09-23T07:12:02.976Z</time>
      </trkpt>
      <trkpt lat="42.15154" lon="42.84714">
        <ele>174.505673</ele>
        <time>2021-09-23T07:13:26.963Z</time>
      </trkpt>
      <trkpt lat="42.15368" lon="42.84775">
        <ele>161.801402</ele>
        <time>2021-09-23T07:14:08.951Z</time>
      </trkpt>
      <trkpt lat="42.1555" lon="42.85014">
        <ele>142.455837</ele>
        <time>2021-09-23T07:14:48.968Z</time>
      </trkpt>
      <trkpt lat="42.15588" lon="42.85309">
        <ele>142.936543</ele>
        <time>2021-09-23T07:15:40.956Z</time>
      </trkpt>
      <trkpt lat="42.15604" lon="42.85581">
        <ele>149.76188</ele>
        <time>2021-09-23T07:16:42.961Z</time>
      </trkpt>
      <trkpt lat="42.15648" lon="42.85878">
        <ele>152.570039</ele>
        <time>2021-09-23T07:17:43.968Z</time>
      </trkpt>
      <trkpt lat="42.1566" lon="42.86202">
        <ele>150.850924</ele>
        <time>2021-09-23T07:18:46.953Z</time>
      </trkpt>
      <trkpt lat="42.15687" lon="42.86495">
        <ele>150.808188</ele>
        <time>2021-09-23T07:19:46.958Z</time>
      </trkpt>
      <trkpt lat="42.15699" lon="42.86789">
        <ele>149.301166</ele>
        <time>2021-09-23T07:20:50.963Z</time>
      </trkpt>
      <trkpt lat="42.15689" lon="42.87063">
        <ele>154.701222</ele>
        <time>2021-09-23T07:22:09.972Z</time>
      </trkpt>
      <trkpt lat="42.15614" lon="42.87333">
        <ele>156.064291</ele>
        <time>2021-09-23T07:23:15.955Z</time>
      </trkpt>
      <trkpt lat="42.1554" lon="42.876">
        <ele>155.881896</ele>
        <time>2021-09-23T07:24:23.965Z</time>
      </trkpt>
      <trkpt lat="42.15566" lon="42.8791">
        <ele>153.176759</ele>
        <time>2021-09-23T07:25:21.955Z</time>
      </trkpt>
      <trkpt lat="42.15638" lon="42.88238">
        <ele>150.787851</ele>
        <time>2021-09-23T07:26:24.964Z</time>
      </trkpt>
      <trkpt lat="42.15828" lon="42.88424">
        <ele>152.92432</ele>
        <time>2021-09-23T07:27:24.972Z</time>
      </trkpt>
      <trkpt lat="42.15919" lon="42.88706">
        <ele>150.873633</ele>
        <time>2021-09-23T07:28:16.964Z</time>
      </trkpt>
      <trkpt lat="42.15933" lon="42.8899">
        <ele>145.712544</ele>
        <time>2021-09-23T07:29:18.958Z</time>
      </trkpt>
      <trkpt lat="42.15962" lon="42.89252">
        <ele>147.729629</ele>
        <time>2021-09-23T07:30:18.964Z</time>
      </trkpt>
      <trkpt lat="42.16019" lon="42.89512">
        <ele>147.23991</ele>
        <time>2021-09-23T07:31:20.965Z</time>
      </trkpt>
      <trkpt lat="42.16097" lon="42.89818">
        <ele>147.095215</ele>
        <time>2021-09-23T07:32:25.008Z</time>
      </trkpt>
      <trkpt lat="42.16119" lon="42.90117">
        <ele>142.548332</ele>
        <time>2021-09-23T07:33:26.967Z</time>
      </trkpt>
      <trkpt lat="42.16014" lon="42.90366">
        <ele>144.814411</ele>
        <time>2021-09-23T07:34:26.963Z</time>
      </trkpt>
      <trkpt lat="42.15919" lon="42.90623">
        <ele>146.812695</ele>
        <time>2021-09-23T07:35:30.971Z</time>
      </trkpt>
      <trkpt lat="42.15813" lon="42.90879">
        <ele>144.074266</ele>
        <time>2021-09-23T07:36:30.954Z</time>
      </trkpt>
      <trkpt lat="42.15702" lon="42.91146">
        <ele>145.322238</ele>
        <time>2021-09-23T07:37:30.988Z</time>
      </trkpt>
      <trkpt lat="42.15686" lon="42.91409">
        <ele>142.795476</ele>
        <time>2021-09-23T07:38:28.958Z</time>
      </trkpt>
      <trkpt lat="42.15808" lon="42.91699">
        <ele>147.473923</ele>
        <time>2021-09-23T07:39:30.968Z</time>
      </trkpt>
      <trkpt lat="42.15824" lon="42.92015">
        <ele>148.326027</ele>
        <time>2021-09-23T07:40:24.975Z</time>
      </trkpt>
      <trkpt lat="42.15792" lon="42.9231">
        <ele>143.629273</ele>
        <time>2021-09-23T07:41:15.995Z</time>
      </trkpt>
      <trkpt lat="42.15642" lon="42.92536">
        <ele>146.013404</ele>
        <time>2021-09-23T07:42:13.963Z</time>
      </trkpt>
      <trkpt lat="42.15549" lon="42.92801">
        <ele>148.356358</ele>
        <time>2021-09-23T07:43:13.960Z</time>
      </trkpt>
      <trkpt lat="42.15384" lon="42.92974">
        <ele>143.950238</ele>
        <time>2021-09-23T07:44:13.965Z</time>
      </trkpt>
      <trkpt lat="42.15179" lon="42.93067">
        <ele>143.071831</ele>
        <time>2021-09-23T07:45:13.984Z</time>
      </trkpt>
      <trkpt lat="42.14995" lon="42.93236">
        <ele>144.446672</ele>
        <time>2021-09-23T07:46:16.969Z</time>
      </trkpt>
      <trkpt lat="42.14836" lon="42.93445">
        <ele>144.268601</ele>
        <time>2021-09-23T07:47:16.965Z</time>
      </trkpt>
      <trkpt lat="42.1468" lon="42.93641">
        <ele>149.585319</ele>
        <time>2021-09-23T07:48:16.962Z</time>
      </trkpt>
      <trkpt lat="42.14519" lon="42.93846">
        <ele>146.688997</ele>
        <time>2021-09-23T07:49:16.967Z</time>
      </trkpt>
      <trkpt lat="42.14355" lon="42.94032">
        <ele>147.46616</ele>
        <time>2021-09-23T07:50:16.969Z</time>
      </trkpt>
      <trkpt lat="42.14192" lon="42.94213">
        <ele>147.235242</ele>
        <time>2021-09-23T07:51:16.952Z</time>
      </trkpt>
      <trkpt lat="42.1402" lon="42.94402">
        <ele>148.819118</ele>
        <time>2021-09-23T07:52:20.973Z</time>
      </trkpt>
      <trkpt lat="42.13902" lon="42.94621">
        <ele>154.161236</ele>
        <time>2021-09-23T07:53:21.960Z</time>
      </trkpt>
      <trkpt lat="42.13839" lon="42.94878">
        <ele>156.915621</ele>
        <time>2021-09-23T07:54:21.972Z</time>
      </trkpt>
      <trkpt lat="42.13772" lon="42.95143">
        <ele>153.674227</ele>
        <time>2021-09-23T07:55:21.967Z</time>
      </trkpt>
      <trkpt lat="42.13657" lon="42.95382">
        <ele>154.845694</ele>
        <time>2021-09-23T07:56:21.976Z</time>
      </trkpt>
      <trkpt lat="42.13551" lon="42.95619">
        <ele>160.639531</ele>
        <time>2021-09-23T07:57:21.970Z</time>
      </trkpt>
      <trkpt lat="42.13452" lon="42.95868">
        <ele>166.665306</ele>
        <time>2021-09-23T07:58:22.965Z</time>
      </trkpt>
      <trkpt lat="42.13346" lon="42.96134">
        <ele>164.847226</ele>
        <time>2021-09-23T07:59:25.965Z</time>
      </trkpt>
      <trkpt lat="42.13253" lon="42.9639">
        <ele>166.722673</ele>
        <time>2021-09-23T08:00:25.968Z</time>
      </trkpt>
      <trkpt lat="42.13178" lon="42.96665">
        <ele>164.281654</ele>
        <time>2021-09-23T08:01:25.959Z</time>
      </trkpt>
      <trkpt lat="42.13073" lon="42.96891">
        <ele>161.952659</ele>
        <time>2021-09-23T08:02:28.965Z</time>
      </trkpt>
      <trkpt lat="42.1287" lon="42.96981">
        <ele>158.526937</ele>
        <time>2021-09-23T08:03:28.965Z</time>
      </trkpt>
      <trkpt lat="42.12667" lon="42.9707">
        <ele>159.664831</ele>
        <time>2021-09-23T08:04:29.006Z</time>
      </trkpt>
      <trkpt lat="42.12444" lon="42.9717">
        <ele>159.097299</ele>
        <time>2021-09-23T08:05:31.963Z</time>
      </trkpt>
      <trkpt lat="42.12242" lon="42.97289">
        <ele>159.667166</ele>
        <time>2021-09-23T08:06:31.964Z</time>
      </trkpt>
      <trkpt lat="42.12108" lon="42.97507">
        <ele>159.917514</ele>
        <time>2021-09-23T08:07:31.967Z</time>
      </trkpt>
      <trkpt lat="42.11935" lon="42.97626">
        <ele>160.885665</ele>
        <time>2021-09-23T08:08:31.969Z</time>
      </trkpt>
      <trkpt lat="42.11881" lon="42.97903">
        <ele>160.593017</ele>
        <time>2021-09-23T08:09:32.958Z</time>
      </trkpt>
      <trkpt lat="42.11902" lon="42.98182">
        <ele>168.033076</ele>
        <time>2021-09-23T08:10:36.971Z</time>
      </trkpt>
      <trkpt lat="42.11922" lon="42.98486">
        <ele>167.587544</ele>
        <time>2021-09-23T08:11:35.949Z</time>
      </trkpt>
      <trkpt lat="42.11889" lon="42.98789">
        <ele>171.778612</ele>
        <time>2021-09-23T08:12:38.974Z</time>
      </trkpt>
      <trkpt lat="42.11925" lon="42.99071">
        <ele>169.795581</ele>
        <time>2021-09-23T08:13:37.995Z</time>
      </trkpt>
      <trkpt lat="42.11877" lon="42.99356">
        <ele>167.559362</ele>
        <time>2021-09-23T08:20:09.969Z</time>
      </trkpt>
      <trkpt lat="42.11859" lon="42.99628">
        <ele>165.72187</ele>
        <time>2021-09-23T08:21:09.970Z</time>
      </trkpt>
      <trkpt lat="42.11871" lon="42.99906">
        <ele>169.559988</ele>
        <time>2021-09-23T08:22:16.971Z</time>
      </trkpt>
      <trkpt lat="42.11963" lon="43.0018">
        <ele>171.720369</ele>
        <time>2021-09-23T08:23:17.973Z</time>
      </trkpt>
      <trkpt lat="42.12049" lon="43.00468">
        <ele>173.868468</ele>
        <time>2021-09-23T08:24:20.992Z</time>
      </trkpt>
      <trkpt lat="42.12212" lon="43.00647">
        <ele>174.0668</ele>
        <time>2021-09-23T08:25:31.991Z</time>
      </trkpt>
      <trkpt lat="42.12101" lon="43.0091">
        <ele>169.332314</ele>
        <time>2021-09-23T08:26:32.966Z</time>
      </trkpt>
      <trkpt lat="42.11983" lon="43.01146">
        <ele>172.845931</ele>
        <time>2021-09-23T08:27:32.967Z</time>
      </trkpt>
      <trkpt lat="42.11888" lon="43.01416">
        <ele>176.000212</ele>
        <time>2021-09-23T08:28:32.957Z</time>
      </trkpt>
      <trkpt lat="42.118" lon="43.01695">
        <ele>174.114424</ele>
        <time>2021-09-23T08:29:30.960Z</time>
      </trkpt>
      <trkpt lat="42.11711" lon="43.01966">
        <ele>180.258297</ele>
        <time>2021-09-23T08:30:31.970Z</time>
      </trkpt>
      <trkpt lat="42.11577" lon="43.02214">
        <ele>184.125512</ele>
        <time>2021-09-23T08:31:34.966Z</time>
      </trkpt>
      <trkpt lat="42.11402" lon="43.02385">
        <ele>178.498294</ele>
        <time>2021-09-23T08:32:32.993Z</time>
      </trkpt>
      <trkpt lat="42.11179" lon="43.02446">
        <ele>175.752689</ele>
        <time>2021-09-23T08:33:32.991Z</time>
      </trkpt>
      <trkpt lat="42.11055" lon="43.02343">
        <ele>177.924033</ele>
        <time>2021-09-23T08:34:33.984Z</time>
      </trkpt>
      <trkpt lat="42.1123" lon="43.02472">
        <ele>183.485265</ele>
        <time>2021-09-23T08:35:28.969Z</time>
      </trkpt>
      <trkpt lat="42.11337" lon="43.02684">
        <ele>186.820851</ele>
        <time>2021-09-23T08:36:37.965Z</time>
      </trkpt>
      <trkpt lat="42.11377" lon="43.02944">
        <ele>195.371862</ele>
        <time>2021-09-23T08:38:18.972Z</time>
      </trkpt>
      <trkpt lat="42.11392" lon="43.0323">
        <ele>201.329002</ele>
        <time>2021-09-23T08:39:31.963Z</time>
      </trkpt>
      <trkpt lat="42.11356" lon="43.03495">
        <ele>204.644876</ele>
        <time>2021-09-23T08:40:37.966Z</time>
      </trkpt>
      <trkpt lat="42.11253" lon="43.03735">
        <ele>201.945446</ele>
        <time>2021-09-23T08:41:44.984Z</time>
      </trkpt>
      <trkpt lat="42.11157" lon="43.03974">
        <ele>205.341881</ele>
        <time>2021-09-23T08:42:45.968Z</time>
      </trkpt>
      <trkpt lat="42.11077" lon="43.04243">
        <ele>203.18491</ele>
        <time>2021-09-23T08:43:49.985Z</time>
      </trkpt>
      <trkpt lat="42.10962" lon="43.04522">
        <ele>204.14618</ele>
        <time>2021-09-23T08:44:48.984Z</time>
      </trkpt>
      <trkpt lat="42.11084" lon="43.04727">
        <ele>220.082755</ele>
        <time>2021-09-23T08:46:55.972Z</time>
      </trkpt>
      <trkpt lat="42.11227" lon="43.04851">
        <ele>233.223991</ele>
        <time>2021-09-23T08:49:12.997Z</time>
      </trkpt>
      <trkpt lat="42.11353" lon="43.04805">
        <ele>253.61352</ele>
        <time>2021-09-23T08:51:50.004Z</time>
      </trkpt>
      <trkpt lat="42.11442" lon="43.04895">
        <ele>271.342323</ele>
        <time>2021-09-23T08:54:35.980Z</time>
      </trkpt>
      <trkpt lat="42.11542" lon="43.05109">
        <ele>289.725514</ele>
        <time>2021-09-23T08:57:05.967Z</time>
      </trkpt>
      <trkpt lat="42.11559" lon="43.05366">
        <ele>306.276457</ele>
        <time>2021-09-23T08:59:40.973Z</time>
      </trkpt>
      <trkpt lat="42.11669" lon="43.05579">
        <ele>308.385706</ele>
        <time>2021-09-23T09:01:42.977Z</time>
      </trkpt>
      <trkpt lat="42.11799" lon="43.05798">
        <ele>314.991496</ele>
        <time>2021-09-23T09:03:53.977Z</time>
      </trkpt>
      <trkpt lat="42.1192" lon="43.06003">
        <ele>323.204902</ele>
        <time>2021-09-23T09:05:47.964Z</time>
      </trkpt>
      <trkpt lat="42.12053" lon="43.06191">
        <ele>334.512352</ele>
        <time>2021-09-23T09:08:13.984Z</time>
      </trkpt>
      <trkpt lat="42.12239" lon="43.06254">
        <ele>343.650264</ele>
        <time>2021-09-23T09:10:32.968Z</time>
      </trkpt>
      <trkpt lat="42.1243" lon="43.06384">
        <ele>342.221128</ele>
        <time>2021-09-23T09:12:04.974Z</time>
      </trkpt>
      <trkpt lat="42.12675" lon="43.06513">
        <ele>338.975158</ele>
        <time>2021-09-23T09:12:40.984Z</time>
      </trkpt>
      <trkpt lat="42.12825" lon="43.06675">
        <ele>347.723909</ele>
        <time>2021-09-23T09:14:37.986Z</time>
      </trkpt>
      <trkpt lat="42.12968" lon="43.06866">
        <ele>353.870759</ele>
        <time>2021-09-23T09:16:16.974Z</time>
      </trkpt>
      <trkpt lat="42.13064" lon="43.071">
        <ele>357.104255</ele>
        <time>2021-09-23T09:17:50.972Z</time>
      </trkpt>
      <trkpt lat="42.13087" lon="43.07357">
        <ele>364.310652</ele>
        <time>2021-09-23T09:19:21.983Z</time>
      </trkpt>
      <trkpt lat="42.13105" lon="43.07607">
        <ele>372.154235</ele>
        <time>2021-09-23T09:21:04.984Z</time>
      </trkpt>
      <trkpt lat="42.13282" lon="43.07738">
        <ele>371.179271</ele>
        <time>2021-09-23T09:21:56.964Z</time>
      </trkpt>
      <trkpt lat="42.13491" lon="43.07833">
        <ele>370.984918</ele>
        <time>2021-09-23T09:22:55.981Z</time>
      </trkpt>
      <trkpt lat="42.13578" lon="43.08075">
        <ele>374.18999</ele>
        <time>2021-09-23T09:24:26.985Z</time>
      </trkpt>
      <trkpt lat="42.13728" lon="43.08255">
        <ele>369.905016</ele>
        <time>2021-09-23T09:25:29.974Z</time>
      </trkpt>
      <trkpt lat="42.13984" lon="43.08188">
        <ele>360.433756</ele>
        <time>2021-09-23T09:26:10.967Z</time>
      </trkpt>
      <trkpt lat="42.14247" lon="43.08273">
        <ele>357.657131</ele>
        <time>2021-09-23T09:26:57.041Z</time>
      </trkpt>
      <trkpt lat="42.14437" lon="43.08396">
        <ele>367.226469</ele>
        <time>2021-09-23T09:28:25.978Z</time>
      </trkpt>
      <trkpt lat="42.1459" lon="43.08555">
        <ele>376.651631</ele>
        <time>2021-09-23T09:30:25.974Z</time>
      </trkpt>
      <trkpt lat="42.1467" lon="43.09289">
        <ele>405.214754</ele>
        <time>2021-09-23T09:51:57.959Z</time>
      </trkpt>
      <trkpt lat="42.14569" lon="43.09502">
        <ele>420.420247</ele>
        <time>2021-09-23T09:54:29.995Z</time>
      </trkpt>
      <trkpt lat="42.14638" lon="43.09737">
        <ele>430.067378</ele>
        <time>2021-09-23T09:56:22.965Z</time>
      </trkpt>
      <trkpt lat="42.1464" lon="43.10028">
        <ele>434.853513</ele>
        <time>2021-09-23T10:18:02.984Z</time>
      </trkpt>
      <trkpt lat="42.14672" lon="43.10294">
        <ele>441.872084</ele>
        <time>2021-09-23T10:19:30.962Z</time>
      </trkpt>
      <trkpt lat="42.14779" lon="43.10518">
        <ele>450.887734</ele>
        <time>2021-09-23T10:21:17.985Z</time>
      </trkpt>
      <trkpt lat="42.14906" lon="43.10721">
        <ele>459.174149</ele>
        <time>2021-09-23T10:23:03.948Z</time>
      </trkpt>
      <trkpt lat="42.15044" lon="43.10971">
        <ele>460.223751</ele>
        <time>2021-09-23T10:24:09.959Z</time>
      </trkpt>
      <trkpt lat="42.15146" lon="43.11207">
        <ele>468.6843</ele>
        <time>2021-09-23T10:25:51.976Z</time>
      </trkpt>
      <trkpt lat="42.15327" lon="43.11313">
        <ele>477.3917</ele>
        <time>2021-09-23T10:27:34.984Z</time>
      </trkpt>
      <trkpt lat="42.15521" lon="43.1142">
        <ele>480.557482</ele>
        <time>2021-09-23T10:28:58.986Z</time>
      </trkpt>
      <trkpt lat="42.1571" lon="43.11535">
        <ele>486.388694</ele>
        <time>2021-09-23T10:30:29.016Z</time>
      </trkpt>
      <trkpt lat="42.15899" lon="43.11604">
        <ele>497.689443</ele>
        <time>2021-09-23T10:32:13.971Z</time>
      </trkpt>
      <trkpt lat="42.16076" lon="43.11732">
        <ele>497.100402</ele>
        <time>2021-09-23T10:33:22.981Z</time>
      </trkpt>
      <trkpt lat="42.16278" lon="43.11835">
        <ele>498.092393</ele>
        <time>2021-09-23T10:34:24.023Z</time>
      </trkpt>
      <trkpt lat="42.16447" lon="43.12">
        <ele>500.617037</ele>
        <time>2021-09-23T10:35:45.962Z</time>
      </trkpt>
      <trkpt lat="42.16683" lon="43.1206">
        <ele>490.477296</ele>
        <time>2021-09-23T10:36:27.965Z</time>
      </trkpt>
      <trkpt lat="42.16861" lon="43.12185">
        <ele>497.652407</ele>
        <time>2021-09-23T10:37:58.976Z</time>
      </trkpt>
      <trkpt lat="42.16977" lon="43.12392">
        <ele>510.188314</ele>
        <time>2021-09-23T10:40:01.971Z</time>
      </trkpt>
      <trkpt lat="42.1709" lon="43.12597">
        <ele>527.783943</ele>
        <time>2021-09-23T10:42:35.960Z</time>
      </trkpt>
      <trkpt lat="42.17166" lon="43.12848">
        <ele>538.300753</ele>
        <time>2021-09-23T10:44:57.991Z</time>
      </trkpt>
      <trkpt lat="42.17348" lon="43.13018">
        <ele>537.447564</ele>
        <time>2021-09-23T10:46:03.983Z</time>
      </trkpt>
      <trkpt lat="42.17525" lon="43.13156">
        <ele>540.685195</ele>
        <time>2021-09-23T10:47:20.004Z</time>
      </trkpt>
      <trkpt lat="42.17682" lon="43.13319">
        <ele>539.45256</ele>
        <time>2021-09-23T10:48:36.984Z</time>
      </trkpt>
      <trkpt lat="42.17833" lon="43.13479">
        <ele>534.702712</ele>
        <time>2021-09-23T10:50:15.976Z</time>
      </trkpt>
      <trkpt lat="42.18017" lon="43.13584">
        <ele>541.015166</ele>
        <time>2021-09-23T10:52:00.964Z</time>
      </trkpt>
      <trkpt lat="42.18246" lon="43.13686">
        <ele>538.159161</ele>
        <time>2021-09-23T10:52:54.965Z</time>
      </trkpt>
      <trkpt lat="42.18442" lon="43.13804">
        <ele>543.574801</ele>
        <time>2021-09-23T10:54:10.958Z</time>
      </trkpt>
      <trkpt lat="42.18587" lon="43.13988">
        <ele>553.78517</ele>
        <time>2021-09-23T10:55:49.949Z</time>
      </trkpt>
      <trkpt lat="42.18749" lon="43.14167">
        <ele>557.758028</ele>
        <time>2021-09-23T10:57:07.974Z</time>
      </trkpt>
      <trkpt lat="42.18917" lon="43.14378">
        <ele>566.201734</ele>
        <time>2021-09-23T10:58:32.975Z</time>
      </trkpt>
      <trkpt lat="42.19013" lon="43.14609">
        <ele>578.422791</ele>
        <time>2021-09-23T11:00:09.972Z</time>
      </trkpt>
      <trkpt lat="42.1917" lon="43.14777">
        <ele>581.899547</ele>
        <time>2021-09-23T11:01:49.965Z</time>
      </trkpt>
      <trkpt lat="42.19364" lon="43.14911">
        <ele>583.47536</ele>
        <time>2021-09-23T11:02:58.997Z</time>
      </trkpt>
      <trkpt lat="42.19523" lon="43.15057">
        <ele>591.63624</ele>
        <time>2021-09-23T11:04:26.962Z</time>
      </trkpt>
      <trkpt lat="42.19704" lon="43.15193">
        <ele>586.916336</ele>
        <time>2021-09-23T11:05:23.965Z</time>
      </trkpt>
      <trkpt lat="42.19906" lon="43.15252">
        <ele>589.872922</ele>
        <time>2021-09-23T11:06:50.978Z</time>
      </trkpt>
      <trkpt lat="42.20119" lon="43.15294">
        <ele>590.889772</ele>
        <time>2021-09-23T11:07:52.015Z</time>
      </trkpt>
      <trkpt lat="42.20325" lon="43.15297">
        <ele>598.11861</ele>
        <time>2021-09-23T11:09:08.967Z</time>
      </trkpt>
      <trkpt lat="42.2053" lon="43.15355">
        <ele>602.636024</ele>
        <time>2021-09-23T11:10:35.973Z</time>
      </trkpt>
      <trkpt lat="42.20748" lon="43.1549">
        <ele>598.147072</ele>
        <time>2021-09-23T11:11:38.962Z</time>
      </trkpt>
      <trkpt lat="42.20947" lon="43.15604">
        <ele>596.476724</ele>
        <time>2021-09-23T11:12:28.965Z</time>
      </trkpt>
      <trkpt lat="42.21149" lon="43.15554">
        <ele>596.047381</ele>
        <time>2021-09-23T11:13:15.974Z</time>
      </trkpt>
      <trkpt lat="42.2134" lon="43.15481">
        <ele>590.156496</ele>
        <time>2021-09-23T11:13:58.978Z</time>
      </trkpt>
      <trkpt lat="42.21532" lon="43.15346">
        <ele>588.352959</ele>
        <time>2021-09-23T11:15:00.972Z</time>
      </trkpt>
      <trkpt lat="42.21737" lon="43.15399">
        <ele>584.651483</ele>
        <time>2021-09-23T11:15:50.990Z</time>
      </trkpt>
      <trkpt lat="42.21977" lon="43.15563">
        <ele>574.607373</ele>
        <time>2021-09-23T11:16:37.965Z</time>
      </trkpt>
      <trkpt lat="42.22207" lon="43.15589">
        <ele>568.55626</ele>
        <time>2021-09-23T11:17:24.977Z</time>
      </trkpt>
      <trkpt lat="42.22381" lon="43.15768">
        <ele>571.045974</ele>
        <time>2021-09-23T11:18:21.007Z</time>
      </trkpt>
      <trkpt lat="42.22535" lon="43.15941">
        <ele>583.486321</ele>
        <time>2021-09-23T11:20:00.985Z</time>
      </trkpt>
      <trkpt lat="42.22632" lon="43.16171">
        <ele>592.244145</ele>
        <time>2021-09-23T11:21:37.978Z</time>
      </trkpt>
      <trkpt lat="42.22753" lon="43.16386">
        <ele>590.491807</ele>
        <time>2021-09-23T11:22:46.977Z</time>
      </trkpt>
      <trkpt lat="42.22919" lon="43.16535">
        <ele>596.721747</ele>
        <time>2021-09-23T11:24:11.014Z</time>
      </trkpt>
      <trkpt lat="42.23093" lon="43.16731">
        <ele>594.777961</ele>
        <time>2021-09-23T11:25:06.980Z</time>
      </trkpt>
      <trkpt lat="42.23106" lon="43.17021">
        <ele>603.842286</ele>
        <time>2021-09-23T11:26:19.975Z</time>
      </trkpt>
      <trkpt lat="42.23151" lon="43.17283">
        <ele>614.921157</ele>
        <time>2021-09-23T11:27:46.977Z</time>
      </trkpt>
      <trkpt lat="42.23204" lon="43.17548">
        <ele>615.155249</ele>
        <time>2021-09-23T11:29:07.974Z</time>
      </trkpt>
      <trkpt lat="42.23307" lon="43.17773">
        <ele>617.833659</ele>
        <time>2021-09-23T11:30:39.002Z</time>
      </trkpt>
      <trkpt lat="42.2343" lon="43.18021">
        <ele>619.507823</ele>
        <time>2021-09-23T11:31:42.970Z</time>
      </trkpt>
      <trkpt lat="42.23574" lon="43.18249">
        <ele>620.964109</ele>
        <time>2021-09-23T11:33:01.977Z</time>
      </trkpt>
      <trkpt lat="42.23789" lon="43.18356">
        <ele>619.859086</ele>
        <time>2021-09-23T11:33:49.971Z</time>
      </trkpt>
      <trkpt lat="42.23979" lon="43.18448">
        <ele>629.195706</ele>
        <time>2021-09-23T11:35:30.023Z</time>
      </trkpt>
      <trkpt lat="42.24169" lon="43.18476">
        <ele>644.864581</ele>
        <time>2021-09-23T11:37:51.985Z</time>
      </trkpt>
      <trkpt lat="42.24316" lon="43.18616">
        <ele>654.210062</ele>
        <time>2021-09-23T11:39:22.978Z</time>
      </trkpt>
      <trkpt lat="42.24495" lon="43.18761">
        <ele>635.90772</ele>
        <time>2021-09-23T11:39:57.968Z</time>
      </trkpt>
      <trkpt lat="42.24754" lon="43.18764">
        <ele>615.543361</ele>
        <time>2021-09-23T11:40:27.006Z</time>
      </trkpt>
      <trkpt lat="42.24979" lon="43.18801">
        <ele>624.833358</ele>
        <time>2021-09-23T11:41:59.004Z</time>
      </trkpt>
      <trkpt lat="42.25165" lon="43.18751">
        <ele>640.409853</ele>
        <time>2021-09-23T11:44:30.969Z</time>
      </trkpt>
      <trkpt lat="42.25357" lon="43.18713">
        <ele>645.443388</ele>
        <time>2021-09-23T11:45:56.976Z</time>
      </trkpt>
      <trkpt lat="42.25482" lon="43.18947">
        <ele>642.695738</ele>
        <time>2021-09-23T11:46:51.979Z</time>
      </trkpt>
      <trkpt lat="42.2571" lon="43.18878">
        <ele>624.852344</ele>
        <time>2021-09-23T11:52:03.988Z</time>
      </trkpt>
      <trkpt lat="42.25902" lon="43.19008">
        <ele>616.905343</ele>
        <time>2021-09-23T11:52:40.980Z</time>
      </trkpt>
      <trkpt lat="42.26034" lon="43.19198">
        <ele>631.520793</ele>
        <time>2021-09-23T11:55:10.978Z</time>
      </trkpt>
      <trkpt lat="42.2625" lon="43.19286">
        <ele>629.653249</ele>
        <time>2021-09-23T11:56:46.003Z</time>
      </trkpt>
      <trkpt lat="42.26489" lon="43.19257">
        <ele>624.586879</ele>
        <time>2021-09-23T11:57:33.992Z</time>
      </trkpt>
      <trkpt lat="42.26681" lon="43.19358">
        <ele>637.726599</ele>
        <time>2021-09-23T11:59:02.980Z</time>
      </trkpt>
      <trkpt lat="42.26867" lon="43.1948">
        <ele>647.547895</ele>
        <time>2021-09-23T12:03:23.982Z</time>
      </trkpt>
      <trkpt lat="42.27044" lon="43.19629">
        <ele>650.319204</ele>
        <time>2021-09-23T12:04:45.992Z</time>
      </trkpt>
      <trkpt lat="42.27235" lon="43.19747">
        <ele>651.59109</ele>
        <time>2021-09-23T12:05:54.979Z</time>
      </trkpt>
      <trkpt lat="42.27446" lon="43.19887">
        <ele>652.447538</ele>
        <time>2021-09-23T12:07:15.013Z</time>
      </trkpt>
      <trkpt lat="42.27634" lon="43.20064">
        <ele>646.337875</ele>
        <time>2021-09-23T12:08:07.986Z</time>
      </trkpt>
      <trkpt lat="42.27718" lon="43.20347">
        <ele>630.384535</ele>
        <time>2021-09-23T12:08:53.980Z</time>
      </trkpt>
      <trkpt lat="42.27855" lon="43.20517">
        <ele>609.796818</ele>
        <time>2021-09-23T12:09:43.017Z</time>
      </trkpt>
      <trkpt lat="42.2807" lon="43.2048">
        <ele>588.191464</ele>
        <time>2021-09-23T12:10:28.979Z</time>
      </trkpt>
      <trkpt lat="42.28099" lon="43.20631">
        <ele>567.445363</ele>
        <time>2021-09-23T12:11:25.983Z</time>
      </trkpt>
      <trkpt lat="42.28296" lon="43.20718">
        <ele>550.220759</ele>
        <time>2021-09-23T12:12:18.973Z</time>
      </trkpt>
      <trkpt lat="42.28389" lon="43.20916">
        <ele>527.844468</ele>
        <time>2021-09-23T12:13:29.987Z</time>
      </trkpt>
      <trkpt lat="42.28295" lon="43.21155">
        <ele>525.258536</ele>
        <time>2021-09-23T12:15:05.974Z</time>
      </trkpt>
      <trkpt lat="42.28108" lon="43.2124">
        <ele>537.54892</ele>
        <time>2021-09-23T12:16:56.976Z</time>
      </trkpt>
      <trkpt lat="42.27917" lon="43.21288">
        <ele>552.040988</ele>
        <time>2021-09-23T12:19:05.017Z</time>
      </trkpt>
      <trkpt lat="42.27739" lon="43.21306">
        <ele>566.690497</ele>
        <time>2021-09-23T12:21:34.971Z</time>
      </trkpt>
      <trkpt lat="42.27555" lon="43.21232">
        <ele>578.301974</ele>
        <time>2021-09-23T12:24:02.993Z</time>
      </trkpt>
      <trkpt lat="42.27342" lon="43.21287">
        <ele>581.05105</ele>
        <time>2021-09-23T12:25:29.994Z</time>
      </trkpt>
      <trkpt lat="42.27145" lon="43.21295">
        <ele>592.192038</ele>
        <time>2021-09-23T12:27:32.989Z</time>
      </trkpt>
      <trkpt lat="42.26966" lon="43.21256">
        <ele>607.328629</ele>
        <time>2021-09-23T12:30:06.993Z</time>
      </trkpt>
      <trkpt lat="42.26796" lon="43.21355">
        <ele>606.359951</ele>
        <time>2021-09-23T12:31:52.985Z</time>
      </trkpt>
      <trkpt lat="42.26741" lon="43.21652">
        <ele>593.032471</ele>
        <time>2021-09-23T12:32:59.982Z</time>
      </trkpt>
      <trkpt lat="42.26634" lon="43.21852">
        <ele>605.864842</ele>
        <time>2021-09-23T12:35:26.979Z</time>
      </trkpt>
      <trkpt lat="42.26656" lon="43.22093">
        <ele>610.171902</ele>
        <time>2021-09-23T12:37:23.983Z</time>
      </trkpt>
      <trkpt lat="42.26875" lon="43.22278">
        <ele>601.184462</ele>
        <time>2021-09-23T12:38:09.981Z</time>
      </trkpt>
      <trkpt lat="42.26907" lon="43.22531">
        <ele>606.502384</ele>
        <time>2021-09-23T12:39:13.996Z</time>
      </trkpt>
      <trkpt lat="42.26973" lon="43.22791">
        <ele>607.687987</ele>
        <time>2021-09-23T12:40:31.995Z</time>
      </trkpt>
      <trkpt lat="42.27183" lon="43.2291">
        <ele>597.157209</ele>
        <time>2021-09-23T12:41:19.986Z</time>
      </trkpt>
      <trkpt lat="42.27412" lon="43.23034">
        <ele>578.392173</ele>
        <time>2021-09-23T12:42:08.986Z</time>
      </trkpt>
      <trkpt lat="42.27593" lon="43.23191">
        <ele>568.789298</ele>
        <time>2021-09-23T12:42:57.979Z</time>
      </trkpt>
      <trkpt lat="42.27783" lon="43.23329">
        <ele>570.823478</ele>
        <time>2021-09-23T12:43:59.985Z</time>
      </trkpt>
      <trkpt lat="42.2795" lon="43.23486">
        <ele>574.063315</ele>
        <time>2021-09-23T12:44:56.981Z</time>
      </trkpt>
      <trkpt lat="42.28" lon="43.23782">
        <ele>586.736289</ele>
        <time>2021-09-23T12:46:04.984Z</time>
      </trkpt>
      <trkpt lat="42.28007" lon="43.24044">
        <ele>594.166316</ele>
        <time>2021-09-23T12:48:19.987Z</time>
      </trkpt>
      <trkpt lat="42.28012" lon="43.24245">
        <ele>592.84037</ele>
        <time>2021-09-23T12:49:31.014Z</time>
      </trkpt>
      <trkpt lat="42.27982" lon="43.24444">
        <ele>608.439708</ele>
        <time>2021-09-23T12:55:16.996Z</time>
      </trkpt>
      <trkpt lat="42.28077" lon="43.24663">
        <ele>621.383929</ele>
        <time>2021-09-23T12:57:43.998Z</time>
      </trkpt>
      <trkpt lat="42.282" lon="43.24894">
        <ele>623.272563</ele>
        <time>2021-09-23T12:58:53.987Z</time>
      </trkpt>
      <trkpt lat="42.28299" lon="43.25134">
        <ele>629.176718</ele>
        <time>2021-09-23T13:00:11.991Z</time>
      </trkpt>
      <trkpt lat="42.28438" lon="43.25322">
        <ele>632.878937</ele>
        <time>2021-09-23T13:01:32.981Z</time>
      </trkpt>
      <trkpt lat="42.28599" lon="43.2548">
        <ele>620.677882</ele>
        <time>2021-09-23T13:02:34.967Z</time>
      </trkpt>
      <trkpt lat="42.28599" lon="43.2575">
        <ele>603.422591</ele>
        <time>2021-09-23T13:03:19.974Z</time>
      </trkpt>
      <trkpt lat="42.28524" lon="43.26033">
        <ele>597.692002</ele>
        <time>2021-09-23T13:04:04.019Z</time>
      </trkpt>
      <trkpt lat="42.28516" lon="43.26348">
        <ele>594.021991</ele>
        <time>2021-09-23T13:04:46.982Z</time>
      </trkpt>
      <trkpt lat="42.28549" lon="43.26641">
        <ele>581.152797</ele>
        <time>2021-09-23T13:05:40.992Z</time>
      </trkpt>
      <trkpt lat="42.28639" lon="43.26876">
        <ele>562.855062</ele>
        <time>2021-09-23T13:06:44.996Z</time>
      </trkpt>
      <trkpt lat="42.28845" lon="43.26937">
        <ele>541.222622</ele>
        <time>2021-09-23T13:07:51.996Z</time>
      </trkpt>
      <trkpt lat="42.28838" lon="43.27131">
        <ele>532.536553</ele>
        <time>2021-09-23T13:08:42.019Z</time>
      </trkpt>
      <trkpt lat="42.28769" lon="43.27422">
        <ele>521.450564</ele>
        <time>2021-09-23T13:09:42.983Z</time>
      </trkpt>
      <trkpt lat="42.28774" lon="43.2759">
        <ele>500.133239</ele>
        <time>2021-09-23T13:10:39.958Z</time>
      </trkpt>
      <trkpt lat="42.28827" lon="43.27794">
        <ele>474.441931</ele>
        <time>2021-09-23T13:11:38.979Z</time>
      </trkpt>
      <trkpt lat="42.28925" lon="43.27925">
        <ele>445.906141</ele>
        <time>2021-09-23T13:12:34.976Z</time>
      </trkpt>
      <trkpt lat="42.29114" lon="43.27775">
        <ele>434.534247</ele>
        <time>2021-09-23T13:13:24.983Z</time>
      </trkpt>
      <trkpt lat="42.29242" lon="43.2794">
        <ele>406.629929</ele>
        <time>2021-09-23T13:14:34.992Z</time>
      </trkpt>
      <trkpt lat="42.29135" lon="43.28106">
        <ele>375.27705</ele>
        <time>2021-09-23T13:15:40.981Z</time>
      </trkpt>
      <trkpt lat="42.29021" lon="43.28348">
        <ele>378.864248</ele>
        <time>2021-09-23T13:16:35.997Z</time>
      </trkpt>
      <trkpt lat="42.29133" lon="43.28593">
        <ele>390.296363</ele>
        <time>2021-09-23T13:17:31.995Z</time>
      </trkpt>
      <trkpt lat="42.29117" lon="43.28899">
        <ele>390.008608</ele>
        <time>2021-09-23T13:18:39.990Z</time>
      </trkpt>
      <trkpt lat="42.29019" lon="43.29086">
        <ele>388.634254</ele>
        <time>2021-09-23T13:20:07.993Z</time>
      </trkpt>
      <trkpt lat="42.28978" lon="43.2911">
        <ele>402.308069</ele>
        <time>2021-09-23T13:28:49.022Z</time>
      </trkpt>
      <trkpt lat="42.28952" lon="43.29141">
        <ele>407.183441</ele>
        <time>2021-09-23T13:54:00.089Z</time>
      </trkpt>
    </trkseg>
  </trk>
</gpx>